Meadow Lake, CO

6:37 PM MDT on April 24, 2018 (GMT -0600)
Meadow Lake

Weather History for KFLY - November, 2012

Change the Weather History Date:

Saturday, November 17, 2012

  Actual Average (KCOS) Record (KCOS)
Temperature  
Mean Temperature 45 °F -  
Max Temperature 61 °F 51 °F 78 °F (1981)
Min Temperature 29 °F 25 °F 3 °F (1903)
Degree Days  
Heating Degree Days 20    
Moisture  
Dew Point 17 °F    
Average Humidity 34    
Maximum Humidity 65    
Minimum Humidity 16    
Precipitation  
Precipitation 0.00 in - - ()
Sea Level Pressure  
Sea Level Pressure 30.14 in    
Wind  
Wind Speed 10 mph (WSW)    
Max Wind Speed 23 mph    
Max Gust Speed 34 mph    
Visibility 10 miles    
Events      
Averages and records for this station are not official NWS values.
T = Trace of Precipitation, MM = Missing Value Source: NWS Daily Summary

Daily Weather History Graph

Daily Weather History Graph

Search for Another Location

Airport or City:

Astronomy

Nov. 17, 2012 Rise Set
Actual Time 6:43 AM MST 4:42 PM MST
Civil Twilight 6:15 AM MST 5:11 PM MST
Nautical Twilight 5:42 AM MST 5:43 PM MST
Astronomical Twilight 5:11 AM MST 6:15 PM MST
Moon 10:30 AM MST (11/17) 8:55 PM MST (11/17)
Length of Visible Light 10h 56m
Length of Day
9h 58m
Waxing Crescent, 21% of the Moon is Illuminated
Nov 17
Waxing Crescent
Nov 20
First Quarter
Nov 28
Full
Dec 6
Last Quarter
Dec 13
New

Hourly Weather History & Observations

Time (MST) Temp. Windchill Dew Point Humidity Pressure Visibility Wind Dir Wind Speed Gust Speed Precip Events Conditions
12:11 AM 37.9 °F 32.7 °F 17.4 °F 43% 30.14 in 10.0 mi West 6.9 mph - N/A   Clear
12:31 AM 37.4 °F 29.8 °F 17.2 °F 44% 30.13 in 10.0 mi West 11.5 mph 18.4 mph N/A   Clear
12:51 AM 38.8 °F 33.2 °F 16.2 °F 40% 30.13 in 10.0 mi West 8.1 mph - N/A   Clear
1:11 AM 42.3 °F - 16.5 °F 35% 30.13 in 10.0 mi Calm Calm - N/A   Clear
1:31 AM 39.4 °F 34.5 °F 17.2 °F 41% 30.14 in 10.0 mi NNE 6.9 mph - N/A   Clear
1:51 AM 43.2 °F 40.5 °F 17.6 °F 36% 30.14 in 10.0 mi West 4.6 mph - N/A   Clear
2:11 AM 41.2 °F - 16.9 °F 38% 30.15 in 10.0 mi Calm Calm - N/A   Clear
2:31 AM 41.2 °F 34.1 °F 18.1 °F 40% 30.15 in 10.0 mi NW 12.7 mph 17.3 mph N/A   Clear
2:51 AM 43.9 °F 36.8 °F 17.8 °F 35% 30.15 in 10.0 mi NW 15.0 mph 21.9 mph N/A   Clear
3:11 AM 45.3 °F 37.3 °F 18.1 °F 34% 30.14 in 10.0 mi WNW 20.7 mph 25.3 mph N/A   Clear
3:31 AM 47.5 °F - 18.0 °F 31% 30.13 in 10.0 mi WNW 23.0 mph 28.8 mph N/A   Clear
3:51 AM 48.7 °F - 18.0 °F 29% 30.13 in 10.0 mi WNW 23.0 mph 34.5 mph N/A   Clear
4:11 AM 46.8 °F - 17.6 °F 31% 30.13 in 10.0 mi WNW 12.7 mph 26.5 mph N/A   Clear
4:31 AM 42.8 °F 37.0 °F 17.4 °F 36% 30.13 in 10.0 mi WNW 10.4 mph 16.1 mph N/A   Clear
4:51 AM 44.1 °F 36.8 °F 17.6 °F 35% 30.13 in 10.0 mi NW 16.1 mph - N/A   Clear
5:11 AM 47.3 °F - 17.8 °F 31% 30.14 in 10.0 mi NW 17.3 mph 32.2 mph N/A   Clear
5:31 AM 45.9 °F 39.4 °F 17.6 °F 32% 30.15 in 10.0 mi NW 15.0 mph 24.2 mph N/A   Clear
5:51 AM 41.7 °F 34.4 °F 17.6 °F 38% 30.16 in 10.0 mi NW 13.8 mph - N/A   Clear
6:11 AM 43.0 °F 36.4 °F 17.4 °F 36% 30.16 in 10.0 mi NW 12.7 mph - N/A   Clear
6:31 AM 43.5 °F 37.5 °F 17.6 °F 35% 30.16 in 10.0 mi WNW 11.5 mph - N/A   Clear
6:51 AM 44.4 °F 39.0 °F 17.6 °F 34% 30.16 in 10.0 mi NW 10.4 mph - N/A   Clear
7:11 AM 43.3 °F 39.2 °F 17.6 °F 36% 30.17 in 10.0 mi NW 6.9 mph - N/A   Clear
7:31 AM 45.9 °F 40.8 °F 18.1 °F 33% 30.18 in 10.0 mi North 10.4 mph - N/A   Clear
7:51 AM 48.4 °F - 18.5 °F 31% 30.18 in 10.0 mi North 9.2 mph 17.3 mph N/A   Clear
8:11 AM 51.1 °F - 18.5 °F 28% 30.19 in 10.0 mi NW 9.2 mph 18.4 mph N/A   Clear
8:31 AM 52.9 °F - 19.0 °F 26% 30.19 in 10.0 mi NW 10.4 mph 18.4 mph N/A   Clear
8:51 AM 54.1 °F - 19.4 °F 26% 30.19 in 10.0 mi NW 10.4 mph 21.9 mph N/A   Clear
9:11 AM 55.4 °F - 19.6 °F 25% 30.19 in 10.0 mi WNW 9.2 mph 17.3 mph N/A   Clear
9:31 AM 56.3 °F - 19.6 °F 24% 30.20 in 10.0 mi WNW 17.3 mph 23.0 mph N/A   Clear
9:51 AM 57.2 °F - 19.0 °F 23% 30.19 in 10.0 mi West 12.7 mph 19.6 mph N/A   Clear
10:11 AM 58.1 °F - 18.0 °F 21% 30.20 in 10.0 mi West 9.2 mph 18.4 mph N/A   Clear
10:31 AM 58.8 °F - 18.0 °F 20% 30.19 in 10.0 mi SW 5.8 mph - N/A   Clear
10:51 AM 59.7 °F - 16.2 °F 18% 30.18 in 10.0 mi SSW 9.2 mph - N/A   Clear
11:11 AM 59.2 °F - 15.8 °F 18% 30.18 in 10.0 mi SSE 9.2 mph 16.1 mph N/A   Clear
11:31 AM 58.8 °F - 17.2 °F 20% 30.17 in 10.0 mi South 15.0 mph 18.4 mph N/A   Clear
11:51 AM 60.4 °F - 15.6 °F 17% 30.16 in 10.0 mi SSW 11.5 mph 18.4 mph N/A   Clear
12:11 PM 60.1 °F - 16.5 °F 18% 30.15 in 10.0 mi SSW 11.5 mph 18.4 mph N/A   Clear
12:31 PM 60.4 °F - 16.3 °F 18% 30.15 in 10.0 mi South 11.5 mph 19.6 mph N/A   Clear
12:51 PM 60.4 °F - 16.3 °F 18% 30.14 in 10.0 mi South 5.8 mph 18.4 mph N/A   Clear
1:11 PM 61.0 °F - 16.2 °F 18% 30.13 in 10.0 mi South 11.5 mph 17.3 mph N/A   Clear
1:31 PM 61.2 °F - 15.8 °F 17% 30.12 in 10.0 mi South 8.1 mph 16.1 mph N/A   Clear
1:51 PM 61.7 °F - 16.2 °F 17% 30.12 in 10.0 mi South 9.2 mph - N/A   Clear
2:11 PM 61.7 °F - 14.7 °F 16% 30.12 in 10.0 mi SSW 8.1 mph 18.4 mph N/A   Clear
2:31 PM 61.0 °F - 13.6 °F 16% 30.12 in 10.0 mi SSE 8.1 mph 19.6 mph N/A   Clear
2:51 PM 59.9 °F - 17.6 °F 19% 30.12 in 10.0 mi SSE 12.7 mph 21.9 mph N/A   Clear
3:11 PM 59.2 °F - 14.5 °F 17% 30.12 in 10.0 mi South 13.8 mph 21.9 mph N/A   Clear
3:31 PM 57.6 °F - 15.4 °F 19% 30.12 in 10.0 mi SSE 15.0 mph 23.0 mph N/A   Clear
3:51 PM 56.3 °F - 15.6 °F 20% 30.12 in 10.0 mi South 15.0 mph 20.7 mph N/A   Clear
4:11 PM 54.0 °F - 15.6 °F 22% 30.12 in 10.0 mi SSE 11.5 mph 17.3 mph N/A   Clear
4:31 PM 49.8 °F - 15.8 °F 26% 30.12 in 10.0 mi SE 12.7 mph 18.4 mph N/A   Clear
5:11 PM 44.1 °F 38.6 °F 17.6 °F 35% 30.12 in 10.0 mi South 10.4 mph - N/A   Clear
5:31 PM 43.7 °F 38.1 °F 18.1 °F 36% 30.13 in 10.0 mi South 10.4 mph - N/A   Clear
5:51 PM 42.6 °F 39.0 °F 18.5 °F 38% 30.12 in 10.0 mi SSE 5.8 mph - N/A   Clear
6:11 PM 41.9 °F 38.2 °F 18.5 °F 39% 30.13 in 10.0 mi SSE 5.8 mph - N/A   Clear
6:31 PM 39.7 °F 32.3 °F 19.0 °F 43% 30.13 in 10.0 mi ESE 12.7 mph - N/A   Clear
6:51 PM 40.6 °F 37.5 °F 19.0 °F 42% 30.13 in 10.0 mi SSE 4.6 mph - N/A   Clear
7:11 PM 39.6 °F 33.0 °F 18.3 °F 42% 30.13 in 10.0 mi SE 10.4 mph - N/A   Clear
7:31 PM 40.1 °F 36.9 °F 18.5 °F 42% 30.13 in 10.0 mi SSE 4.6 mph - N/A   Clear
7:51 PM 38.3 °F 35.9 °F 18.1 °F 44% 30.14 in 10.0 mi South 3.5 mph - N/A   Clear
8:11 PM 38.7 °F 34.3 °F 18.5 °F 44% 30.13 in 10.0 mi West 5.8 mph - N/A   Clear
8:31 PM 35.1 °F 31.0 °F 17.8 °F 49% 30.13 in 10.0 mi West 4.6 mph - N/A   Clear
8:51 PM 32.9 °F 27.5 °F 17.6 °F 53% 30.13 in 10.0 mi West 5.8 mph - N/A   Clear
9:11 PM 36.7 °F - 18.1 °F 47% 30.12 in 10.0 mi Calm Calm - N/A   Clear
9:31 PM 32.4 °F 27.9 °F 17.1 °F 53% 30.12 in 10.0 mi NW 4.6 mph - N/A   Clear
9:51 PM 30.7 °F 22.6 °F 18.0 °F 59% 30.11 in 10.0 mi West 9.2 mph - N/A   Clear
10:11 PM 32.0 °F 23.0 °F 18.5 °F 58% 30.10 in 10.0 mi West 11.5 mph - N/A   Clear
10:31 PM 32.0 °F 28.7 °F 18.7 °F 58% 30.10 in 10.0 mi NNW 3.5 mph - N/A   Clear
10:51 PM 31.1 °F - 18.5 °F 60% 30.09 in 10.0 mi Calm Calm - N/A   Clear
11:11 PM 29.1 °F 24.1 °F 18.0 °F 63% 30.09 in 10.0 mi NNW 4.6 mph - N/A   Clear
11:31 PM 29.1 °F 21.3 °F 18.5 °F 65% 30.09 in 10.0 mi NW 8.1 mph - N/A   Clear
11:51 PM 30.2 °F 23.4 °F 18.5 °F 62% 30.09 in 10.0 mi WNW 6.9 mph - N/A   Clear